sensor_id;sensor_type;location;lat;lon;timestamp;P1;durP1;ratioP1;P2;durP2;ratioP2
71679;SDS011;59512;42.662;23.254;2023-05-16T00:00:51;36.92;;;25.33;;
71679;SDS011;59512;42.662;23.254;2023-05-16T00:03:20;34.37;;;25.83;;
71679;SDS011;59512;42.662;23.254;2023-05-16T00:05:45;37.42;;;26.83;;
71679;SDS011;59512;42.662;23.254;2023-05-16T00:08:12;39.10;;;27.73;;
71679;SDS011;59512;42.662;23.254;2023-05-16T00:10:37;39.20;;;27.27;;
71679;SDS011;59512;42.662;23.254;2023-05-16T00:13:03;34.93;;;26.00;;
71679;SDS011;59512;42.662;23.254;2023-05-16T00:15:28;36.80;;;26.38;;
71679;SDS011;59512;42.662;23.254;2023-05-16T00:17:54;32.43;;;24.13;;
71679;SDS011;59512;42.662;23.254;2023-05-16T00:20:24;32.35;;;23.35;;
71679;SDS011;59512;42.662;23.254;2023-05-16T00:22:53;32.17;;;21.98;;
71679;SDS011;59512;42.662;23.254;2023-05-16T00:25:19;33.10;;;22.53;;
71679;SDS011;59512;42.662;23.254;2023-05-16T00:27:44;33.50;;;23.85;;
71679;SDS011;59512;42.662;23.254;2023-05-16T00:30:10;32.03;;;22.90;;
71679;SDS011;59512;42.662;23.254;2023-05-16T00:32:36;31.30;;;22.05;;
71679;SDS011;59512;42.662;23.254;2023-05-16T00:35:01;29.43;;;21.90;;
71679;SDS011;59512;42.662;23.254;2023-05-16T00:37:27;30.58;;;22.13;;
71679;SDS011;59512;42.662;23.254;2023-05-16T00:39:53;32.33;;;20.67;;
71679;SDS011;59512;42.662;23.254;2023-05-16T00:42:18;30.08;;;20.70;;
71679;SDS011;59512;42.662;23.254;2023-05-16T00:44:45;25.67;;;20.02;;
71679;SDS011;59512;42.662;23.254;2023-05-16T00:47:11;31.75;;;23.10;;
71679;SDS011;59512;42.662;23.254;2023-05-16T00:49:36;27.80;;;20.83;;
71679;SDS011;59512;42.662;23.254;2023-05-16T00:52:02;27.92;;;19.85;;
71679;SDS011;59512;42.662;23.254;2023-05-16T00:54:28;29.67;;;22.53;;
71679;SDS011;59512;42.662;23.254;2023-05-16T00:56:54;31.60;;;23.38;;
71679;SDS011;59512;42.662;23.254;2023-05-16T00:59:23;36.47;;;25.83;;
71679;SDS011;59512;42.662;23.254;2023-05-16T01:01:49;35.67;;;25.58;;
71679;SDS011;59512;42.662;23.254;2023-05-16T01:04:15;35.40;;;23.63;;
71679;SDS011;59512;42.662;23.254;2023-05-16T01:06:41;30.55;;;22.92;;
71679;SDS011;59512;42.662;23.254;2023-05-16T01:09:07;29.55;;;21.75;;
71679;SDS011;59512;42.662;23.254;2023-05-16T01:11:35;31.60;;;24.17;;
71679;SDS011;59512;42.662;23.254;2023-05-16T01:19:13;32.03;;;23.65;;
71679;SDS011;59512;42.662;23.254;2023-05-16T01:21:48;32.53;;;23.75;;
71679;SDS011;59512;42.662;23.254;2023-05-16T01:26:55;29.53;;;22.23;;
71679;SDS011;59512;42.662;23.254;2023-05-16T01:29:21;28.70;;;21.02;;
71679;SDS011;59512;42.662;23.254;2023-05-16T01:31:46;25.93;;;18.77;;
71679;SDS011;59512;42.662;23.254;2023-05-16T01:34:12;27.85;;;20.90;;
71679;SDS011;59512;42.662;23.254;2023-05-16T01:36:47;31.83;;;24.73;;
71679;SDS011;59512;42.662;23.254;2023-05-16T01:41:53;36.80;;;26.13;;
71679;SDS011;59512;42.662;23.254;2023-05-16T01:44:24;34.37;;;26.63;;
71679;SDS011;59512;42.662;23.254;2023-05-16T01:46:52;36.55;;;27.58;;
71679;SDS011;59512;42.662;23.254;2023-05-16T01:49:24;36.47;;;28.92;;
71679;SDS011;59512;42.662;23.254;2023-05-16T01:51:53;34.50;;;25.80;;
71679;SDS011;59512;42.662;23.254;2023-05-16T01:54:20;37.20;;;26.15;;
71679;SDS011;59512;42.662;23.254;2023-05-16T01:56:52;32.40;;;24.73;;
71679;SDS011;59512;42.662;23.254;2023-05-16T01:59:22;34.72;;;24.02;;
71679;SDS011;59512;42.662;23.254;2023-05-16T02:01:48;34.85;;;24.40;;
71679;SDS011;59512;42.662;23.254;2023-05-16T02:04:15;30.20;;;24.05;;
71679;SDS011;59512;42.662;23.254;2023-05-16T02:06:41;32.37;;;25.87;;
71679;SDS011;59512;42.662;23.254;2023-05-16T02:09:06;35.05;;;25.98;;
71679;SDS011;59512;42.662;23.254;2023-05-16T02:11:32;31.67;;;24.77;;
71679;SDS011;59512;42.662;23.254;2023-05-16T02:13:58;37.00;;;27.23;;
71679;SDS011;59512;42.662;23.254;2023-05-16T02:16:23;33.58;;;23.83;;
71679;SDS011;59512;42.662;23.254;2023-05-16T02:18:49;46.33;;;28.27;;
71679;SDS011;59512;42.662;23.254;2023-05-16T02:21:14;34.35;;;27.15;;
71679;SDS011;59512;42.662;23.254;2023-05-16T02:23:40;32.53;;;25.17;;
71679;SDS011;59512;42.662;23.254;2023-05-16T02:26:05;32.90;;;24.37;;
71679;SDS011;59512;42.662;23.254;2023-05-16T02:28:31;36.90;;;28.87;;
71679;SDS011;59512;42.662;23.254;2023-05-16T02:30:57;36.53;;;28.80;;
71679;SDS011;59512;42.662;23.254;2023-05-16T02:33:23;41.53;;;31.42;;
71679;SDS011;59512;42.662;23.254;2023-05-16T02:35:53;38.67;;;30.13;;
71679;SDS011;59512;42.662;23.254;2023-05-16T02:38:18;38.38;;;30.33;;
71679;SDS011;59512;42.662;23.254;2023-05-16T02:40:48;36.60;;;29.33;;
71679;SDS011;59512;42.662;23.254;2023-05-16T02:43:14;43.70;;;32.60;;
71679;SDS011;59512;42.662;23.254;2023-05-16T02:45:40;33.63;;;26.10;;
71679;SDS011;59512;42.662;23.254;2023-05-16T02:48:05;29.20;;;22.10;;
71679;SDS011;59512;42.662;23.254;2023-05-16T02:50:31;32.87;;;25.77;;
71679;SDS011;59512;42.662;23.254;2023-05-16T02:52:57;32.83;;;26.50;;
71679;SDS011;59512;42.662;23.254;2023-05-16T02:55:24;30.10;;;24.98;;
71679;SDS011;59512;42.662;23.254;2023-05-16T02:57:50;29.70;;;24.65;;
71679;SDS011;59512;42.662;23.254;2023-05-16T03:00:16;36.55;;;28.75;;
71679;SDS011;59512;42.662;23.254;2023-05-16T03:02:42;41.00;;;31.37;;
71679;SDS011;59512;42.662;23.254;2023-05-16T03:05:08;34.97;;;28.40;;
71679;SDS011;59512;42.662;23.254;2023-05-16T03:07:34;36.93;;;29.57;;
71679;SDS011;59512;42.662;23.254;2023-05-16T03:10:00;38.03;;;30.15;;
71679;SDS011;59512;42.662;23.254;2023-05-16T03:12:25;38.93;;;31.37;;
71679;SDS011;59512;42.662;23.254;2023-05-16T03:14:50;38.60;;;30.77;;
71679;SDS011;59512;42.662;23.254;2023-05-16T03:17:16;42.20;;;31.70;;
71679;SDS011;59512;42.662;23.254;2023-05-16T03:19:41;40.67;;;30.60;;
71679;SDS011;59512;42.662;23.254;2023-05-16T03:22:07;39.20;;;31.23;;
71679;SDS011;59512;42.662;23.254;2023-05-16T03:24:32;38.90;;;32.83;;
71679;SDS011;59512;42.662;23.254;2023-05-16T03:26:58;38.50;;;31.90;;
71679;SDS011;59512;42.662;23.254;2023-05-16T03:29:24;39.90;;;30.92;;
71679;SDS011;59512;42.662;23.254;2023-05-16T03:31:51;40.47;;;31.25;;
71679;SDS011;59512;42.662;23.254;2023-05-16T03:34:16;40.08;;;31.42;;
71679;SDS011;59512;42.662;23.254;2023-05-16T03:36:42;40.13;;;31.58;;
71679;SDS011;59512;42.662;23.254;2023-05-16T03:39:07;38.97;;;30.97;;
71679;SDS011;59512;42.662;23.254;2023-05-16T03:41:33;41.87;;;32.37;;
71679;SDS011;59512;42.662;23.254;2023-05-16T03:43:59;40.67;;;32.60;;
71679;SDS011;59512;42.662;23.254;2023-05-16T03:46:24;37.50;;;31.43;;
71679;SDS011;59512;42.662;23.254;2023-05-16T03:48:50;33.85;;;26.92;;
71679;SDS011;59512;42.662;23.254;2023-05-16T03:51:15;37.03;;;29.13;;
71679;SDS011;59512;42.662;23.254;2023-05-16T03:53:41;39.30;;;29.27;;
71679;SDS011;59512;42.662;23.254;2023-05-16T03:56:06;45.73;;;32.10;;
71679;SDS011;59512;42.662;23.254;2023-05-16T03:58:32;41.67;;;32.80;;
71679;SDS011;59512;42.662;23.254;2023-05-16T04:00:57;40.38;;;29.73;;
71679;SDS011;59512;42.662;23.254;2023-05-16T04:03:23;29.25;;;23.70;;
71679;SDS011;59512;42.662;23.254;2023-05-16T04:05:52;34.75;;;29.83;;
71679;SDS011;59512;42.662;23.254;2023-05-16T04:08:19;38.45;;;28.08;;
71679;SDS011;59512;42.662;23.254;2023-05-16T04:10:45;36.42;;;28.05;;
71679;SDS011;59512;42.662;23.254;2023-05-16T04:13:10;35.17;;;25.37;;
71679;SDS011;59512;42.662;23.254;2023-05-16T04:15:36;32.10;;;26.70;;
71679;SDS011;59512;42.662;23.254;2023-05-16T04:18:01;35.60;;;29.37;;
71679;SDS011;59512;42.662;23.254;2023-05-16T04:20:27;39.45;;;29.88;;
71679;SDS011;59512;42.662;23.254;2023-05-16T04:22:52;35.77;;;27.17;;
71679;SDS011;59512;42.662;23.254;2023-05-16T04:25:18;34.33;;;26.47;;
71679;SDS011;59512;42.662;23.254;2023-05-16T04:27:43;37.00;;;25.97;;
71679;SDS011;59512;42.662;23.254;2023-05-16T04:30:09;35.60;;;26.40;;
71679;SDS011;59512;42.662;23.254;2023-05-16T04:32:35;33.63;;;26.57;;
71679;SDS011;59512;42.662;23.254;2023-05-16T04:35:01;47.63;;;37.67;;
71679;SDS011;59512;42.662;23.254;2023-05-16T04:37:27;47.37;;;36.67;;
71679;SDS011;59512;42.662;23.254;2023-05-16T04:39:52;43.25;;;32.28;;
71679;SDS011;59512;42.662;23.254;2023-05-16T04:42:18;38.60;;;28.70;;
71679;SDS011;59512;42.662;23.254;2023-05-16T04:44:44;37.40;;;28.42;;
71679;SDS011;59512;42.662;23.254;2023-05-16T04:47:11;39.93;;;28.23;;
71679;SDS011;59512;42.662;23.254;2023-05-16T04:49:37;39.22;;;30.83;;
71679;SDS011;59512;42.662;23.254;2023-05-16T04:52:03;35.90;;;29.00;;
71679;SDS011;59512;42.662;23.254;2023-05-16T04:54:28;44.83;;;29.38;;
71679;SDS011;59512;42.662;23.254;2023-05-16T04:56:54;38.47;;;28.60;;
71679;SDS011;59512;42.662;23.254;2023-05-16T04:59:19;43.57;;;31.30;;
71679;SDS011;59512;42.662;23.254;2023-05-16T05:01:45;43.22;;;31.88;;
71679;SDS011;59512;42.662;23.254;2023-05-16T05:04:11;37.80;;;27.63;;
71679;SDS011;59512;42.662;23.254;2023-05-16T05:06:36;37.25;;;27.35;;
71679;SDS011;59512;42.662;23.254;2023-05-16T05:09:02;38.50;;;28.47;;
71679;SDS011;59512;42.662;23.254;2023-05-16T05:11:29;39.22;;;28.85;;
71679;SDS011;59512;42.662;23.254;2023-05-16T05:13:55;35.77;;;28.33;;
71679;SDS011;59512;42.662;23.254;2023-05-16T05:16:20;34.53;;;26.33;;
71679;SDS011;59512;42.662;23.254;2023-05-16T05:18:46;33.03;;;27.67;;
71679;SDS011;59512;42.662;23.254;2023-05-16T05:21:11;37.70;;;25.60;;
71679;SDS011;59512;42.662;23.254;2023-05-16T05:23:37;34.63;;;26.27;;
71679;SDS011;59512;42.662;23.254;2023-05-16T05:26:02;35.38;;;25.30;;
71679;SDS011;59512;42.662;23.254;2023-05-16T05:28:28;33.35;;;26.17;;
71679;SDS011;59512;42.662;23.254;2023-05-16T05:30:53;40.83;;;27.23;;
71679;SDS011;59512;42.662;23.254;2023-05-16T05:33:19;42.53;;;26.17;;
71679;SDS011;59512;42.662;23.254;2023-05-16T05:35:44;38.13;;;25.97;;
71679;SDS011;59512;42.662;23.254;2023-05-16T05:38:09;38.35;;;26.73;;
71679;SDS011;59512;42.662;23.254;2023-05-16T05:40:35;43.77;;;28.33;;
71679;SDS011;59512;42.662;23.254;2023-05-16T05:43:00;39.63;;;29.17;;
71679;SDS011;59512;42.662;23.254;2023-05-16T05:45:26;35.87;;;26.50;;
71679;SDS011;59512;42.662;23.254;2023-05-16T05:47:51;39.60;;;28.00;;
71679;SDS011;59512;42.662;23.254;2023-05-16T05:50:16;44.58;;;31.38;;
71679;SDS011;59512;42.662;23.254;2023-05-16T05:52:42;40.67;;;30.43;;
71679;SDS011;59512;42.662;23.254;2023-05-16T05:55:07;39.47;;;28.43;;
71679;SDS011;59512;42.662;23.254;2023-05-16T05:57:33;41.00;;;28.93;;
71679;SDS011;59512;42.662;23.254;2023-05-16T05:59:58;44.50;;;29.15;;
71679;SDS011;59512;42.662;23.254;2023-05-16T06:02:24;41.83;;;29.40;;
71679;SDS011;59512;42.662;23.254;2023-05-16T06:04:49;42.67;;;29.53;;
71679;SDS011;59512;42.662;23.254;2023-05-16T06:07:15;39.33;;;29.00;;
71679;SDS011;59512;42.662;23.254;2023-05-16T06:09:42;39.15;;;30.30;;
71679;SDS011;59512;42.662;23.254;2023-05-16T06:12:08;38.30;;;28.47;;
71679;SDS011;59512;42.662;23.254;2023-05-16T06:14:33;36.67;;;25.77;;
71679;SDS011;59512;42.662;23.254;2023-05-16T06:16:59;33.63;;;24.17;;
71679;SDS011;59512;42.662;23.254;2023-05-16T06:19:24;31.60;;;22.45;;
71679;SDS011;59512;42.662;23.254;2023-05-16T06:21:49;30.30;;;21.33;;
71679;SDS011;59512;42.662;23.254;2023-05-16T06:24:15;29.63;;;21.83;;
71679;SDS011;59512;42.662;23.254;2023-05-16T06:26:40;34.40;;;22.87;;
71679;SDS011;59512;42.662;23.254;2023-05-16T06:29:06;29.53;;;22.13;;
71679;SDS011;59512;42.662;23.254;2023-05-16T06:31:31;32.20;;;21.40;;
71679;SDS011;59512;42.662;23.254;2023-05-16T06:33:57;32.30;;;21.60;;
71679;SDS011;59512;42.662;23.254;2023-05-16T06:36:22;31.20;;;23.23;;
71679;SDS011;59512;42.662;23.254;2023-05-16T06:38:48;26.17;;;19.60;;
71679;SDS011;59512;42.662;23.254;2023-05-16T06:41:14;31.60;;;21.95;;
71679;SDS011;59512;42.662;23.254;2023-05-16T06:43:39;28.67;;;19.80;;
71679;SDS011;59512;42.662;23.254;2023-05-16T06:46:05;32.25;;;20.63;;
71679;SDS011;59512;42.662;23.254;2023-05-16T06:48:30;26.00;;;18.87;;
71679;SDS011;59512;42.662;23.254;2023-05-16T06:50:56;23.75;;;17.10;;
71679;SDS011;59512;42.662;23.254;2023-05-16T06:53:21;22.17;;;16.10;;
71679;SDS011;59512;42.662;23.254;2023-05-16T06:55:47;27.97;;;17.30;;
71679;SDS011;59512;42.662;23.254;2023-05-16T06:58:12;24.07;;;17.60;;
71679;SDS011;59512;42.662;23.254;2023-05-16T07:00:38;20.80;;;15.10;;
71679;SDS011;59512;42.662;23.254;2023-05-16T07:03:03;21.55;;;13.98;;
71679;SDS011;59512;42.662;23.254;2023-05-16T07:05:29;20.77;;;12.50;;
71679;SDS011;59512;42.662;23.254;2023-05-16T07:07:55;19.95;;;12.25;;
71679;SDS011;59512;42.662;23.254;2023-05-16T07:10:21;21.75;;;14.02;;
71679;SDS011;59512;42.662;23.254;2023-05-16T07:12:46;18.63;;;12.67;;
71679;SDS011;59512;42.662;23.254;2023-05-16T07:15:12;25.58;;;14.45;;
71679;SDS011;59512;42.662;23.254;2023-05-16T07:17:38;28.02;;;15.32;;
71679;SDS011;59512;42.662;23.254;2023-05-16T07:20:04;23.60;;;15.30;;
71679;SDS011;59512;42.662;23.254;2023-05-16T07:22:30;21.73;;;14.93;;
71679;SDS011;59512;42.662;23.254;2023-05-16T07:24:56;21.83;;;14.97;;
71679;SDS011;59512;42.662;23.254;2023-05-16T07:27:24;21.45;;;14.80;;
71679;SDS011;59512;42.662;23.254;2023-05-16T07:29:50;20.02;;;13.75;;
71679;SDS011;59512;42.662;23.254;2023-05-16T07:32:16;20.43;;;14.57;;
71679;SDS011;59512;42.662;23.254;2023-05-16T07:34:42;21.98;;;12.43;;
71679;SDS011;59512;42.662;23.254;2023-05-16T07:37:07;16.53;;;11.60;;
71679;SDS011;59512;42.662;23.254;2023-05-16T07:39:37;17.13;;;9.80;;
71679;SDS011;59512;42.662;23.254;2023-05-16T07:42:03;15.32;;;9.68;;
71679;SDS011;59512;42.662;23.254;2023-05-16T07:44:28;14.80;;;9.03;;
71679;SDS011;59512;42.662;23.254;2023-05-16T07:46:54;17.27;;;10.20;;
71679;SDS011;59512;42.662;23.254;2023-05-16T07:49:19;14.83;;;8.90;;
71679;SDS011;59512;42.662;23.254;2023-05-16T07:51:45;17.10;;;9.68;;
71679;SDS011;59512;42.662;23.254;2023-05-16T07:54:10;20.07;;;9.77;;
71679;SDS011;59512;42.662;23.254;2023-05-16T07:56:36;18.30;;;9.70;;
71679;SDS011;59512;42.662;23.254;2023-05-16T07:59:01;16.77;;;9.80;;
71679;SDS011;59512;42.662;23.254;2023-05-16T08:01:27;17.27;;;10.57;;
71679;SDS011;59512;42.662;23.254;2023-05-16T08:03:52;19.03;;;11.00;;
71679;SDS011;59512;42.662;23.254;2023-05-16T08:06:17;27.63;;;11.47;;
71679;SDS011;59512;42.662;23.254;2023-05-16T08:08:43;28.23;;;12.23;;
71679;SDS011;59512;42.662;23.254;2023-05-16T08:11:08;16.27;;;10.17;;
71679;SDS011;59512;42.662;23.254;2023-05-16T08:13:34;13.57;;;8.30;;
71679;SDS011;59512;42.662;23.254;2023-05-16T08:15:59;16.30;;;9.67;;
71679;SDS011;59512;42.662;23.254;2023-05-16T08:18:25;16.17;;;9.40;;
71679;SDS011;59512;42.662;23.254;2023-05-16T08:20:50;21.92;;;10.90;;
71679;SDS011;59512;42.662;23.254;2023-05-16T08:23:15;23.20;;;10.68;;
71679;SDS011;59512;42.662;23.254;2023-05-16T08:25:41;17.00;;;9.30;;
71679;SDS011;59512;42.662;23.254;2023-05-16T08:28:06;19.13;;;9.63;;
71679;SDS011;59512;42.662;23.254;2023-05-16T08:30:32;17.63;;;9.50;;
71679;SDS011;59512;42.662;23.254;2023-05-16T08:32:57;22.80;;;9.90;;
71679;SDS011;59512;42.662;23.254;2023-05-16T08:35:22;17.97;;;9.70;;
71679;SDS011;59512;42.662;23.254;2023-05-16T08:37:48;20.27;;;9.93;;
71679;SDS011;59512;42.662;23.254;2023-05-16T08:40:14;16.80;;;10.20;;
71679;SDS011;59512;42.662;23.254;2023-05-16T08:42:39;18.60;;;9.70;;
71679;SDS011;59512;42.662;23.254;2023-05-16T08:45:05;18.30;;;9.93;;
71679;SDS011;59512;42.662;23.254;2023-05-16T08:47:32;19.30;;;9.77;;
71679;SDS011;59512;42.662;23.254;2023-05-16T08:49:58;16.35;;;9.27;;
71679;SDS011;59512;42.662;23.254;2023-05-16T08:52:26;14.45;;;8.13;;
71679;SDS011;59512;42.662;23.254;2023-05-16T08:54:58;15.93;;;8.47;;
71679;SDS011;59512;42.662;23.254;2023-05-16T08:57:26;16.30;;;9.02;;
71679;SDS011;59512;42.662;23.254;2023-05-16T08:59:52;15.07;;;8.27;;
71679;SDS011;59512;42.662;23.254;2023-05-16T09:02:19;18.00;;;8.53;;
71679;SDS011;59512;42.662;23.254;2023-05-16T09:04:46;19.35;;;7.53;;
71679;SDS011;59512;42.662;23.254;2023-05-16T09:07:13;17.42;;;7.20;;
71679;SDS011;59512;42.662;23.254;2023-05-16T09:09:38;14.40;;;6.83;;
71679;SDS011;59512;42.662;23.254;2023-05-16T09:12:04;16.60;;;7.30;;
71679;SDS011;59512;42.662;23.254;2023-05-16T09:14:29;15.98;;;7.20;;
71679;SDS011;59512;42.662;23.254;2023-05-16T09:17:07;14.33;;;7.50;;
71679;SDS011;59512;42.662;23.254;2023-05-16T09:19:37;13.35;;;7.13;;
71679;SDS011;59512;42.662;23.254;2023-05-16T09:22:04;14.95;;;7.57;;
71679;SDS011;59512;42.662;23.254;2023-05-16T09:24:31;19.95;;;8.38;;
71679;SDS011;59512;42.662;23.254;2023-05-16T09:26:57;15.70;;;7.90;;
71679;SDS011;59512;42.662;23.254;2023-05-16T09:29:32;17.70;;;9.43;;
71679;SDS011;59512;42.662;23.254;2023-05-16T09:32:03;13.83;;;8.67;;
71679;SDS011;59512;42.662;23.254;2023-05-16T09:34:36;23.20;;;8.23;;
71679;SDS011;59512;42.662;23.254;2023-05-16T09:37:03;18.45;;;8.30;;
71679;SDS011;59512;42.662;23.254;2023-05-16T09:39:28;15.27;;;8.73;;
71679;SDS011;59512;42.662;23.254;2023-05-16T09:41:54;15.20;;;7.78;;
71679;SDS011;59512;42.662;23.254;2023-05-16T09:44:20;15.40;;;8.23;;
71679;SDS011;59512;42.662;23.254;2023-05-16T09:46:45;16.97;;;9.00;;
71679;SDS011;59512;42.662;23.254;2023-05-16T09:49:11;18.40;;;8.93;;
71679;SDS011;59512;42.662;23.254;2023-05-16T09:51:36;15.05;;;8.35;;
71679;SDS011;59512;42.662;23.254;2023-05-16T09:54:06;18.58;;;8.65;;
71679;SDS011;59512;42.662;23.254;2023-05-16T09:56:31;15.63;;;9.20;;
71679;SDS011;59512;42.662;23.254;2023-05-16T09:58:57;19.60;;;8.83;;
71679;SDS011;59512;42.662;23.254;2023-05-16T10:01:22;15.50;;;9.17;;
71679;SDS011;59512;42.662;23.254;2023-05-16T10:03:48;19.95;;;8.98;;
71679;SDS011;59512;42.662;23.254;2023-05-16T10:06:14;17.23;;;9.00;;
71679;SDS011;59512;42.662;23.254;2023-05-16T10:08:41;16.08;;;8.98;;
71679;SDS011;59512;42.662;23.254;2023-05-16T10:11:07;16.60;;;8.67;;
71679;SDS011;59512;42.662;23.254;2023-05-16T10:13:34;15.15;;;8.20;;
71679;SDS011;59512;42.662;23.254;2023-05-16T10:16:03;17.80;;;9.23;;
71679;SDS011;59512;42.662;23.254;2023-05-16T10:18:37;21.17;;;8.80;;
71679;SDS011;59512;42.662;23.254;2023-05-16T10:21:09;16.30;;;9.25;;
71679;SDS011;59512;42.662;23.254;2023-05-16T10:23:42;19.27;;;10.13;;
71679;SDS011;59512;42.662;23.254;2023-05-16T10:26:08;24.10;;;10.20;;
71679;SDS011;59512;42.662;23.254;2023-05-16T10:28:37;13.43;;;8.43;;
71679;SDS011;59512;42.662;23.254;2023-05-16T10:31:03;14.80;;;8.83;;
71679;SDS011;59512;42.662;23.254;2023-05-16T10:33:29;13.93;;;8.55;;
71679;SDS011;59512;42.662;23.254;2023-05-16T10:35:55;17.98;;;9.18;;
71679;SDS011;59512;42.662;23.254;2023-05-16T10:38:21;15.80;;;9.60;;
71679;SDS011;59512;42.662;23.254;2023-05-16T10:40:48;18.08;;;10.07;;
71679;SDS011;59512;42.662;23.254;2023-05-16T10:43:24;23.15;;;9.85;;
71679;SDS011;59512;42.662;23.254;2023-05-16T10:45:58;18.35;;;9.93;;
71679;SDS011;59512;42.662;23.254;2023-05-16T10:48:36;17.43;;;9.83;;
71679;SDS011;59512;42.662;23.254;2023-05-16T10:51:04;15.43;;;9.20;;
71679;SDS011;59512;42.662;23.254;2023-05-16T10:54:03;18.92;;;10.45;;
71679;SDS011;59512;42.662;23.254;2023-05-16T10:56:32;17.05;;;9.73;;
71679;SDS011;59512;42.662;23.254;2023-05-16T10:58:59;18.88;;;10.38;;
71679;SDS011;59512;42.662;23.254;2023-05-16T11:01:28;16.60;;;10.23;;
71679;SDS011;59512;42.662;23.254;2023-05-16T11:06:23;17.40;;;9.17;;
71679;SDS011;59512;42.662;23.254;2023-05-16T11:14:20;16.77;;;9.70;;
71679;SDS011;59512;42.662;23.254;2023-05-16T11:27:35;16.60;;;9.68;;
71679;SDS011;59512;42.662;23.254;2023-05-16T11:32:30;18.03;;;10.73;;
71679;SDS011;59512;42.662;23.254;2023-05-16T11:34:58;27.10;;;11.65;;
71679;SDS011;59512;42.662;23.254;2023-05-16T11:37:23;27.63;;;11.40;;
71679;SDS011;59512;42.662;23.254;2023-05-16T11:39:49;19.50;;;10.80;;
71679;SDS011;59512;42.662;23.254;2023-05-16T11:42:14;24.43;;;11.10;;
71679;SDS011;59512;42.662;23.254;2023-05-16T11:44:40;23.10;;;10.18;;
71679;SDS011;59512;42.662;23.254;2023-05-16T11:47:06;20.53;;;11.20;;
71679;SDS011;59512;42.662;23.254;2023-05-16T11:49:32;24.83;;;11.68;;
71679;SDS011;59512;42.662;23.254;2023-05-16T11:51:57;21.67;;;10.80;;
71679;SDS011;59512;42.662;23.254;2023-05-16T11:54:23;17.98;;;10.65;;
71679;SDS011;59512;42.662;23.254;2023-05-16T11:56:49;16.30;;;9.87;;
71679;SDS011;59512;42.662;23.254;2023-05-16T11:59:15;17.77;;;10.65;;
71679;SDS011;59512;42.662;23.254;2023-05-16T12:01:41;20.60;;;10.00;;
71679;SDS011;59512;42.662;23.254;2023-05-16T12:04:10;15.32;;;9.52;;
71679;SDS011;59512;42.662;23.254;2023-05-16T12:06:39;21.38;;;9.18;;
71679;SDS011;59512;42.662;23.254;2023-05-16T12:09:10;25.50;;;10.37;;
71679;SDS011;59512;42.662;23.254;2023-05-16T12:11:38;21.95;;;10.63;;
71679;SDS011;59512;42.662;23.254;2023-05-16T12:14:04;18.83;;;10.10;;
71679;SDS011;59512;42.662;23.254;2023-05-16T12:16:30;15.50;;;9.30;;
71679;SDS011;59512;42.662;23.254;2023-05-16T12:18:56;15.48;;;9.45;;
71679;SDS011;59512;42.662;23.254;2023-05-16T12:21:22;17.30;;;9.20;;
71679;SDS011;59512;42.662;23.254;2023-05-16T12:23:48;18.05;;;10.15;;
71679;SDS011;59512;42.662;23.254;2023-05-16T12:26:13;20.47;;;11.47;;
71679;SDS011;59512;42.662;23.254;2023-05-16T12:28:39;21.93;;;12.07;;
71679;SDS011;59512;42.662;23.254;2023-05-16T12:31:17;22.63;;;12.10;;
71679;SDS011;59512;42.662;23.254;2023-05-16T12:33:44;23.97;;;12.17;;
71679;SDS011;59512;42.662;23.254;2023-05-16T12:36:13;25.27;;;11.93;;
71679;SDS011;59512;42.662;23.254;2023-05-16T12:38:39;24.15;;;12.63;;
71679;SDS011;59512;42.662;23.254;2023-05-16T12:41:05;22.10;;;11.48;;
71679;SDS011;59512;42.662;23.254;2023-05-16T12:43:31;33.17;;;13.30;;
71679;SDS011;59512;42.662;23.254;2023-05-16T12:45:56;22.50;;;13.07;;
71679;SDS011;59512;42.662;23.254;2023-05-16T12:48:22;20.13;;;12.73;;
71679;SDS011;59512;42.662;23.254;2023-05-16T12:50:48;25.85;;;12.95;;
71679;SDS011;59512;42.662;23.254;2023-05-16T12:53:15;19.13;;;13.10;;
71679;SDS011;59512;42.662;23.254;2023-05-16T12:55:42;20.43;;;12.83;;
71679;SDS011;59512;42.662;23.254;2023-05-16T12:58:08;20.63;;;13.57;;
71679;SDS011;59512;42.662;23.254;2023-05-16T13:00:35;18.85;;;12.63;;
71679;SDS011;59512;42.662;23.254;2023-05-16T13:03:01;22.17;;;12.32;;
71679;SDS011;59512;42.662;23.254;2023-05-16T13:05:27;26.95;;;14.77;;
71679;SDS011;59512;42.662;23.254;2023-05-16T13:07:53;26.80;;;14.80;;
71679;SDS011;59512;42.662;23.254;2023-05-16T13:10:19;22.75;;;13.10;;
71679;SDS011;59512;42.662;23.254;2023-05-16T13:12:45;23.63;;;13.20;;
71679;SDS011;59512;42.662;23.254;2023-05-16T13:15:11;22.02;;;12.73;;
71679;SDS011;59512;42.662;23.254;2023-05-16T13:17:37;19.58;;;13.48;;
71679;SDS011;59512;42.662;23.254;2023-05-16T13:20:03;31.70;;;14.90;;
71679;SDS011;59512;42.662;23.254;2023-05-16T13:22:33;27.87;;;14.00;;
71679;SDS011;59512;42.662;23.254;2023-05-16T13:25:02;23.65;;;12.93;;
71679;SDS011;59512;42.662;23.254;2023-05-16T13:27:28;19.88;;;12.55;;
71679;SDS011;59512;42.662;23.254;2023-05-16T13:29:54;23.88;;;12.68;;
71679;SDS011;59512;42.662;23.254;2023-05-16T13:32:19;25.42;;;13.00;;
71679;SDS011;59512;42.662;23.254;2023-05-16T13:34:45;30.83;;;14.97;;
71679;SDS011;59512;42.662;23.254;2023-05-16T13:37:10;29.63;;;15.07;;
71679;SDS011;59512;42.662;23.254;2023-05-16T13:39:35;32.77;;;15.00;;
71679;SDS011;59512;42.662;23.254;2023-05-16T13:42:01;25.65;;;15.27;;
71679;SDS011;59512;42.662;23.254;2023-05-16T13:44:27;27.53;;;15.90;;
71679;SDS011;59512;42.662;23.254;2023-05-16T13:46:53;26.13;;;17.23;;
71679;SDS011;59512;42.662;23.254;2023-05-16T13:49:18;25.30;;;16.53;;
71679;SDS011;59512;42.662;23.254;2023-05-16T13:51:44;27.75;;;14.73;;
71679;SDS011;59512;42.662;23.254;2023-05-16T13:54:11;24.20;;;14.10;;
71679;SDS011;59512;42.662;23.254;2023-05-16T13:56:36;28.60;;;15.65;;
71679;SDS011;59512;42.662;23.254;2023-05-16T13:59:02;29.27;;;14.43;;
71679;SDS011;59512;42.662;23.254;2023-05-16T14:01:27;23.50;;;13.73;;
71679;SDS011;59512;42.662;23.254;2023-05-16T14:03:53;27.92;;;14.85;;
71679;SDS011;59512;42.662;23.254;2023-05-16T14:06:18;25.57;;;15.40;;
71679;SDS011;59512;42.662;23.254;2023-05-16T14:08:44;29.70;;;15.70;;
71679;SDS011;59512;42.662;23.254;2023-05-16T14:11:10;25.65;;;16.10;;
71679;SDS011;59512;42.662;23.254;2023-05-16T14:13:35;24.10;;;16.67;;
71679;SDS011;59512;42.662;23.254;2023-05-16T14:16:00;24.30;;;16.83;;
71679;SDS011;59512;42.662;23.254;2023-05-16T14:18:26;22.40;;;17.15;;
71679;SDS011;59512;42.662;23.254;2023-05-16T14:20:52;25.83;;;19.27;;
71679;SDS011;59512;42.662;23.254;2023-05-16T14:23:20;31.20;;;21.15;;
71679;SDS011;59512;42.662;23.254;2023-05-16T14:25:46;27.83;;;18.67;;
71679;SDS011;59512;42.662;23.254;2023-05-16T14:28:11;24.73;;;19.37;;
71679;SDS011;59512;42.662;23.254;2023-05-16T14:30:36;32.83;;;20.07;;
71679;SDS011;59512;42.662;23.254;2023-05-16T14:33:02;26.07;;;17.53;;
71679;SDS011;59512;42.662;23.254;2023-05-16T14:35:27;24.55;;;16.20;;
71679;SDS011;59512;42.662;23.254;2023-05-16T14:37:53;16.07;;;9.83;;